sensor_id;sensor_type;location;lat;lon;timestamp;P1;P2;P0
62547;PMS7003;48602;45.192;5.722;2023-04-03T00:02:02;0.00;0.00;0.00
62547;PMS7003;48602;45.192;5.722;2023-04-03T00:04:27;0.00;0.00;0.00
62547;PMS7003;48602;45.192;5.722;2023-04-03T00:06:52;0.00;0.00;0.00
62547;PMS7003;48602;45.192;5.722;2023-04-03T00:09:18;0.25;0.25;0.25
62547;PMS7003;48602;45.192;5.722;2023-04-03T00:11:43;0.00;0.00;0.00
62547;PMS7003;48602;45.192;5.722;2023-04-03T00:14:09;1.00;1.00;1.00
62547;PMS7003;48602;45.192;5.722;2023-04-03T00:16:34;0.00;0.00;0.00
62547;PMS7003;48602;45.192;5.722;2023-04-03T00:19:00;1.00;1.00;1.00
62547;PMS7003;48602;45.192;5.722;2023-04-03T00:21:25;0.00;0.00;0.00
62547;PMS7003;48602;45.192;5.722;2023-04-03T00:23:51;0.50;0.50;0.50
62547;PMS7003;48602;45.192;5.722;2023-04-03T00:26:16;0.50;0.50;0.50
62547;PMS7003;48602;45.192;5.722;2023-04-03T00:28:42;0.00;0.00;0.00
62547;PMS7003;48602;45.192;5.722;2023-04-03T00:31:07;0.00;0.00;0.00
62547;PMS7003;48602;45.192;5.722;2023-04-03T00:33:32;0.25;0.25;0.25
62547;PMS7003;48602;45.192;5.722;2023-04-03T00:35:58;0.75;0.00;0.00
62547;PMS7003;48602;45.192;5.722;2023-04-03T00:38:23;1.00;1.00;1.00
62547;PMS7003;48602;45.192;5.722;2023-04-03T00:40:49;0.00;0.00;0.00
62547;PMS7003;48602;45.192;5.722;2023-04-03T00:43:19;0.00;0.00;0.00
62547;PMS7003;48602;45.192;5.722;2023-04-03T00:45:48;2.00;1.50;1.00
62547;PMS7003;48602;45.192;5.722;2023-04-03T00:48:19;0.50;0.50;0.50
62547;PMS7003;48602;45.192;5.722;2023-04-03T00:50:47;0.00;0.00;0.00
62547;PMS7003;48602;45.192;5.722;2023-04-03T00:53:18;0.00;0.00;0.00
62547;PMS7003;48602;45.192;5.722;2023-04-03T00:55:48;0.00;0.00;0.00
62547;PMS7003;48602;45.192;5.722;2023-04-03T00:58:15;1.00;1.00;1.00
62547;PMS7003;48602;45.192;5.722;2023-04-03T01:00:46;0.00;0.00;0.00
62547;PMS7003;48602;45.192;5.722;2023-04-03T01:03:15;0.75;0.75;0.75
62547;PMS7003;48602;45.192;5.722;2023-04-03T01:05:40;1.00;0.00;0.00
62547;PMS7003;48602;45.192;5.722;2023-04-03T01:08:06;0.00;0.00;0.00
62547;PMS7003;48602;45.192;5.722;2023-04-03T01:10:31;1.75;0.50;0.50
62547;PMS7003;48602;45.192;5.722;2023-04-03T01:12:57;0.00;0.00;0.00
62547;PMS7003;48602;45.192;5.722;2023-04-03T01:15:25;0.00;0.00;0.00
62547;PMS7003;48602;45.192;5.722;2023-04-03T01:17:56;0.50;0.50;0.25
62547;PMS7003;48602;45.192;5.722;2023-04-03T01:25:41;0.75;0.75;0.00
62547;PMS7003;48602;45.192;5.722;2023-04-03T01:28:27;0.75;0.75;0.00
62547;PMS7003;48602;45.192;5.722;2023-04-03T01:31:03;1.00;1.00;1.00
62547;PMS7003;48602;45.192;5.722;2023-04-03T01:33:38;0.00;0.00;0.00
62547;PMS7003;48602;45.192;5.722;2023-04-03T01:36:04;1.00;0.00;0.00
62547;PMS7003;48602;45.192;5.722;2023-04-03T01:38:30;1.75;1.75;1.50
62547;PMS7003;48602;45.192;5.722;2023-04-03T01:40:56;0.25;0.00;0.00
62547;PMS7003;48602;45.192;5.722;2023-04-03T01:43:21;0.75;0.75;0.50
62547;PMS7003;48602;45.192;5.722;2023-04-03T01:45:47;1.25;1.25;1.25
62547;PMS7003;48602;45.192;5.722;2023-04-03T01:48:14;4.25;1.50;1.00
62547;PMS7003;48602;45.192;5.722;2023-04-03T01:50:40;1.75;1.00;1.00
62547;PMS7003;48602;45.192;5.722;2023-04-03T01:53:06;0.00;0.00;0.00
62547;PMS7003;48602;45.192;5.722;2023-04-03T01:55:31;2.00;2.00;2.00
62547;PMS7003;48602;45.192;5.722;2023-04-03T01:57:57;1.00;1.00;1.00
62547;PMS7003;48602;45.192;5.722;2023-04-03T02:00:22;2.00;2.00;2.00
62547;PMS7003;48602;45.192;5.722;2023-04-03T02:02:48;2.00;2.00;2.00
62547;PMS7003;48602;45.192;5.722;2023-04-03T02:05:13;3.00;2.00;2.00
62547;PMS7003;48602;45.192;5.722;2023-04-03T02:07:38;2.00;2.00;2.00
62547;PMS7003;48602;45.192;5.722;2023-04-03T02:10:04;1.00;1.00;1.00
62547;PMS7003;48602;45.192;5.722;2023-04-03T02:12:30;1.00;1.00;1.00
62547;PMS7003;48602;45.192;5.722;2023-04-03T02:14:55;1.00;1.00;1.00
62547;PMS7003;48602;45.192;5.722;2023-04-03T02:17:21;1.50;1.00;1.00
62547;PMS7003;48602;45.192;5.722;2023-04-03T02:19:46;2.00;2.00;1.00
62547;PMS7003;48602;45.192;5.722;2023-04-03T02:22:12;1.25;1.00;1.00
62547;PMS7003;48602;45.192;5.722;2023-04-03T02:24:37;2.00;2.00;1.25
62547;PMS7003;48602;45.192;5.722;2023-04-03T02:27:04;3.50;2.00;2.00
62547;PMS7003;48602;45.192;5.722;2023-04-03T02:29:29;1.75;1.75;1.00
62547;PMS7003;48602;45.192;5.722;2023-04-03T02:31:55;1.50;1.50;1.50
62547;PMS7003;48602;45.192;5.722;2023-04-03T02:34:20;2.25;2.00;1.50
62547;PMS7003;48602;45.192;5.722;2023-04-03T02:36:46;1.00;1.00;1.00
62547;PMS7003;48602;45.192;5.722;2023-04-03T02:39:11;1.75;1.00;1.00
62547;PMS7003;48602;45.192;5.722;2023-04-03T02:41:36;1.00;1.00;1.00
62547;PMS7003;48602;45.192;5.722;2023-04-03T02:44:02;1.75;1.75;1.50
62547;PMS7003;48602;45.192;5.722;2023-04-03T02:46:29;2.00;2.00;1.00
62547;PMS7003;48602;45.192;5.722;2023-04-03T02:48:55;0.00;0.00;0.00
62547;PMS7003;48602;45.192;5.722;2023-04-03T02:51:21;1.50;1.50;1.00
62547;PMS7003;48602;45.192;5.722;2023-04-03T02:53:48;2.00;2.00;2.00
62547;PMS7003;48602;45.192;5.722;2023-04-03T02:56:13;3.50;2.00;1.50
62547;PMS7003;48602;45.192;5.722;2023-04-03T02:58:39;2.00;2.00;2.00
62547;PMS7003;48602;45.192;5.722;2023-04-03T03:01:05;1.00;1.00;1.00
62547;PMS7003;48602;45.192;5.722;2023-04-03T03:03:30;2.00;1.00;1.00
62547;PMS7003;48602;45.192;5.722;2023-04-03T03:08:51;1.00;1.00;1.00
62547;PMS7003;48602;45.192;5.722;2023-04-03T03:11:17;1.25;1.25;1.00
62547;PMS7003;48602;45.192;5.722;2023-04-03T03:13:44;1.75;1.50;1.50
62547;PMS7003;48602;45.192;5.722;2023-04-03T03:16:09;1.00;1.00;1.00
62547;PMS7003;48602;45.192;5.722;2023-04-03T03:18:35;2.00;1.50;1.25
62547;PMS7003;48602;45.192;5.722;2023-04-03T03:21:01;2.00;2.00;1.75
62547;PMS7003;48602;45.192;5.722;2023-04-03T03:23:28;2.50;1.50;1.00
62547;PMS7003;48602;45.192;5.722;2023-04-03T03:25:56;2.00;2.00;2.00
62547;PMS7003;48602;45.192;5.722;2023-04-03T03:28:24;2.00;2.00;1.50
62547;PMS7003;48602;45.192;5.722;2023-04-03T03:30:49;1.25;1.25;1.00
62547;PMS7003;48602;45.192;5.722;2023-04-03T03:33:16;2.75;2.75;2.00
62547;PMS7003;48602;45.192;5.722;2023-04-03T03:35:42;2.25;1.50;1.50
62547;PMS7003;48602;45.192;5.722;2023-04-03T03:38:08;1.00;1.00;1.00
62547;PMS7003;48602;45.192;5.722;2023-04-03T03:40:33;1.00;1.00;1.00
62547;PMS7003;48602;45.192;5.722;2023-04-03T03:42:59;2.00;2.00;2.00
62547;PMS7003;48602;45.192;5.722;2023-04-03T03:45:24;0.75;0.75;0.75
62547;PMS7003;48602;45.192;5.722;2023-04-03T03:47:50;1.75;1.00;1.00
62547;PMS7003;48602;45.192;5.722;2023-04-03T03:50:15;2.50;2.50;2.00
62547;PMS7003;48602;45.192;5.722;2023-04-03T03:52:41;3.00;3.00;2.00
62547;PMS7003;48602;45.192;5.722;2023-04-03T03:55:06;2.00;2.00;2.00
62547;PMS7003;48602;45.192;5.722;2023-04-03T03:57:32;2.75;2.75;2.00
62547;PMS7003;48602;45.192;5.722;2023-04-03T03:59:57;3.25;3.00;2.25
62547;PMS7003;48602;45.192;5.722;2023-04-03T04:02:23;1.50;1.50;1.25
62547;PMS7003;48602;45.192;5.722;2023-04-03T04:04:48;3.00;2.00;2.00
62547;PMS7003;48602;45.192;5.722;2023-04-03T04:07:14;0.00;0.00;0.00
62547;PMS7003;48602;45.192;5.722;2023-04-03T04:09:39;4.00;3.00;2.00
62547;PMS7003;48602;45.192;5.722;2023-04-03T04:12:05;7.25;3.25;3.00
62547;PMS7003;48602;45.192;5.722;2023-04-03T04:14:30;4.00;3.75;2.00
62547;PMS7003;48602;45.192;5.722;2023-04-03T04:16:56;4.00;4.00;3.75
62547;PMS7003;48602;45.192;5.722;2023-04-03T04:19:21;4.75;3.75;3.00
62547;PMS7003;48602;45.192;5.722;2023-04-03T04:21:47;5.00;4.00;3.75
62547;PMS7003;48602;45.192;5.722;2023-04-03T04:24:12;5.25;3.00;2.00
62547;PMS7003;48602;45.192;5.722;2023-04-03T04:26:37;4.50;2.50;2.00
62547;PMS7003;48602;45.192;5.722;2023-04-03T04:29:03;9.25;7.00;5.00
62547;PMS7003;48602;45.192;5.722;2023-04-03T04:31:28;6.00;6.00;5.00
62547;PMS7003;48602;45.192;5.722;2023-04-03T04:33:54;6.50;5.00;4.00
62547;PMS7003;48602;45.192;5.722;2023-04-03T04:36:19;4.50;3.50;3.00
62547;PMS7003;48602;45.192;5.722;2023-04-03T04:38:45;4.00;4.00;3.00
62547;PMS7003;48602;45.192;5.722;2023-04-03T04:41:10;3.00;3.00;3.00
62547;PMS7003;48602;45.192;5.722;2023-04-03T04:43:36;6.00;5.00;3.75
62547;PMS7003;48602;45.192;5.722;2023-04-03T04:46:09;5.00;4.25;3.50
62547;PMS7003;48602;45.192;5.722;2023-04-03T04:48:36;4.00;4.00;4.00
62547;PMS7003;48602;45.192;5.722;2023-04-03T04:51:02;5.00;5.00;4.00
62547;PMS7003;48602;45.192;5.722;2023-04-03T04:53:27;5.00;4.00;3.00
62547;PMS7003;48602;45.192;5.722;2023-04-03T04:55:52;4.00;4.00;3.75
62547;PMS7003;48602;45.192;5.722;2023-04-03T04:58:18;8.25;4.50;3.25
62547;PMS7003;48602;45.192;5.722;2023-04-03T05:00:44;6.75;6.00;5.00
62547;PMS7003;48602;45.192;5.722;2023-04-03T05:03:10;7.50;3.50;3.00
62547;PMS7003;48602;45.192;5.722;2023-04-03T05:05:35;5.50;4.25;3.00
62547;PMS7003;48602;45.192;5.722;2023-04-03T05:08:01;5.00;5.00;4.25
62547;PMS7003;48602;45.192;5.722;2023-04-03T05:10:27;5.00;5.00;4.75
62547;PMS7003;48602;45.192;5.722;2023-04-03T05:12:53;9.25;7.25;5.00
62547;PMS7003;48602;45.192;5.722;2023-04-03T05:15:19;5.00;5.00;4.00
62547;PMS7003;48602;45.192;5.722;2023-04-03T05:17:44;4.75;4.75;4.00
62547;PMS7003;48602;45.192;5.722;2023-04-03T05:20:10;2.75;2.75;1.25
62547;PMS7003;48602;45.192;5.722;2023-04-03T05:22:36;3.00;2.50;2.00
62547;PMS7003;48602;45.192;5.722;2023-04-03T05:25:01;7.50;6.00;5.00
62547;PMS7003;48602;45.192;5.722;2023-04-03T05:27:26;4.00;4.00;4.00
62547;PMS7003;48602;45.192;5.722;2023-04-03T05:29:53;6.00;5.00;3.50
62547;PMS7003;48602;45.192;5.722;2023-04-03T05:32:20;5.00;5.00;4.00
62547;PMS7003;48602;45.192;5.722;2023-04-03T05:34:45;3.00;3.00;3.00
62547;PMS7003;48602;45.192;5.722;2023-04-03T05:37:11;5.00;4.00;3.00
62547;PMS7003;48602;45.192;5.722;2023-04-03T05:39:37;3.00;3.00;2.75
62547;PMS7003;48602;45.192;5.722;2023-04-03T05:42:05;4.00;3.00;2.75
62547;PMS7003;48602;45.192;5.722;2023-04-03T05:44:31;5.50;5.00;3.00
62547;PMS7003;48602;45.192;5.722;2023-04-03T05:46:56;3.75;3.50;3.00
62547;PMS7003;48602;45.192;5.722;2023-04-03T05:49:21;4.75;4.75;3.25
62547;PMS7003;48602;45.192;5.722;2023-04-03T05:51:47;10.50;6.00;4.50
62547;PMS7003;48602;45.192;5.722;2023-04-03T05:54:13;4.50;4.25;3.25
62547;PMS7003;48602;45.192;5.722;2023-04-03T05:56:43;5.00;4.50;4.00
62547;PMS7003;48602;45.192;5.722;2023-04-03T05:59:09;15.67;15.67;12.00
62547;PMS7003;48602;45.192;5.722;2023-04-03T06:01:34;6.25;5.00;4.50
62547;PMS7003;48602;45.192;5.722;2023-04-03T06:03:59;5.00;5.00;4.00
62547;PMS7003;48602;45.192;5.722;2023-04-03T06:06:25;5.00;5.00;4.00
62547;PMS7003;48602;45.192;5.722;2023-04-03T06:08:51;6.00;6.00;5.00
62547;PMS7003;48602;45.192;5.722;2023-04-03T06:11:17;5.00;4.00;3.00
62547;PMS7003;48602;45.192;5.722;2023-04-03T06:13:42;3.75;3.50;3.00
62547;PMS7003;48602;45.192;5.722;2023-04-03T06:16:09;5.00;5.00;4.00
62547;PMS7003;48602;45.192;5.722;2023-04-03T06:18:40;4.25;4.25;3.50
62547;PMS7003;48602;45.192;5.722;2023-04-03T06:21:06;4.25;4.00;4.00
62547;PMS7003;48602;45.192;5.722;2023-04-03T06:23:32;6.25;5.50;4.00
62547;PMS7003;48602;45.192;5.722;2023-04-03T06:25:58;9.75;6.50;4.00
62547;PMS7003;48602;45.192;5.722;2023-04-03T06:28:23;5.00;4.25;3.50
62547;PMS7003;48602;45.192;5.722;2023-04-03T06:30:49;6.50;4.50;4.00
62547;PMS7003;48602;45.192;5.722;2023-04-03T06:33:14;2.00;2.00;1.25
62547;PMS7003;48602;45.192;5.722;2023-04-03T06:35:40;3.25;2.50;2.00
62547;PMS7003;48602;45.192;5.722;2023-04-03T06:38:05;5.75;5.75;4.25
62547;PMS7003;48602;45.192;5.722;2023-04-03T06:40:34;3.50;2.50;1.75
62547;PMS7003;48602;45.192;5.722;2023-04-03T06:43:00;1.00;1.00;0.00
62547;PMS7003;48602;45.192;5.722;2023-04-03T06:45:26;2.00;2.00;2.00
62547;PMS7003;48602;45.192;5.722;2023-04-03T06:47:52;1.00;1.00;1.00
62547;PMS7003;48602;45.192;5.722;2023-04-03T06:50:18;3.00;2.00;1.75
62547;PMS7003;48602;45.192;5.722;2023-04-03T06:52:44;2.00;2.00;1.00
62547;PMS7003;48602;45.192;5.722;2023-04-03T06:55:09;2.00;2.00;1.00
62547;PMS7003;48602;45.192;5.722;2023-04-03T06:57:35;2.50;2.50;2.00
62547;PMS7003;48602;45.192;5.722;2023-04-03T07:00:01;1.50;1.25;1.00
62547;PMS7003;48602;45.192;5.722;2023-04-03T07:02:29;1.75;1.75;1.75
62547;PMS7003;48602;45.192;5.722;2023-04-03T07:04:54;1.00;1.00;1.00
62547;PMS7003;48602;45.192;5.722;2023-04-03T07:07:20;1.00;1.00;1.00
62547;PMS7003;48602;45.192;5.722;2023-04-03T07:09:45;3.75;2.00;2.00
62547;PMS7003;48602;45.192;5.722;2023-04-03T07:12:12;2.25;2.00;2.00
62547;PMS7003;48602;45.192;5.722;2023-04-03T07:14:38;2.00;2.00;2.00
62547;PMS7003;48602;45.192;5.722;2023-04-03T07:17:04;0.25;0.25;0.25
62547;PMS7003;48602;45.192;5.722;2023-04-03T07:19:29;1.00;1.00;1.00
62547;PMS7003;48602;45.192;5.722;2023-04-03T07:21:55;1.00;0.75;0.50
62547;PMS7003;48602;45.192;5.722;2023-04-03T07:24:20;1.75;1.00;1.00
62547;PMS7003;48602;45.192;5.722;2023-04-03T07:26:49;1.75;1.75;1.75
62547;PMS7003;48602;45.192;5.722;2023-04-03T07:29:16;1.00;1.00;1.00
62547;PMS7003;48602;45.192;5.722;2023-04-03T07:31:42;1.00;1.00;1.00
62547;PMS7003;48602;45.192;5.722;2023-04-03T07:34:08;1.00;1.00;1.00
62547;PMS7003;48602;45.192;5.722;2023-04-03T07:36:33;2.00;2.00;2.00
62547;PMS7003;48602;45.192;5.722;2023-04-03T07:38:58;4.50;3.00;1.50
62547;PMS7003;48602;45.192;5.722;2023-04-03T07:41:24;2.25;2.25;2.00
62547;PMS7003;48602;45.192;5.722;2023-04-03T07:43:49;3.00;3.00;2.75
62547;PMS7003;48602;45.192;5.722;2023-04-03T07:46:15;2.00;1.00;1.00
62547;PMS7003;48602;45.192;5.722;2023-04-03T07:48:40;2.00;2.00;2.00
62547;PMS7003;48602;45.192;5.722;2023-04-03T07:51:06;3.00;3.00;2.00
62547;PMS7003;48602;45.192;5.722;2023-04-03T07:53:32;4.00;4.00;3.75
62547;PMS7003;48602;45.192;5.722;2023-04-03T07:55:58;5.50;5.50;4.00
62547;PMS7003;48602;45.192;5.722;2023-04-03T07:58:24;3.75;3.75;3.50
62547;PMS7003;48602;45.192;5.722;2023-04-03T08:00:51;7.00;5.75;5.00
62547;PMS7003;48602;45.192;5.722;2023-04-03T08:03:16;6.25;5.75;5.00
62547;PMS7003;48602;45.192;5.722;2023-04-03T08:05:43;4.00;4.00;3.50
62547;PMS7003;48602;45.192;5.722;2023-04-03T08:08:12;7.00;5.50;5.25
62547;PMS7003;48602;45.192;5.722;2023-04-03T08:10:40;7.00;5.00;4.75
62547;PMS7003;48602;45.192;5.722;2023-04-03T08:13:06;6.00;5.00;5.00
62547;PMS7003;48602;45.192;5.722;2023-04-03T08:15:32;4.50;4.50;4.50
62547;PMS7003;48602;45.192;5.722;2023-04-03T08:17:58;7.25;4.00;3.75
62547;PMS7003;48602;45.192;5.722;2023-04-03T08:20:24;8.75;7.00;5.00
62547;PMS7003;48602;45.192;5.722;2023-04-03T08:22:50;5.00;5.00;5.00
62547;PMS7003;48602;45.192;5.722;2023-04-03T08:25:16;6.50;5.50;5.00
62547;PMS7003;48602;45.192;5.722;2023-04-03T08:27:42;5.25;5.00;4.00
62547;PMS7003;48602;45.192;5.722;2023-04-03T08:30:08;6.75;4.75;4.25
62547;PMS7003;48602;45.192;5.722;2023-04-03T08:32:34;2.00;2.00;2.00
62547;PMS7003;48602;45.192;5.722;2023-04-03T08:35:00;9.00;7.50;5.75
62547;PMS7003;48602;45.192;5.722;2023-04-03T08:37:26;7.00;5.50;5.00
62547;PMS7003;48602;45.192;5.722;2023-04-03T08:39:52;5.50;5.50;5.00
62547;PMS7003;48602;45.192;5.722;2023-04-03T08:42:33;7.25;6.50;5.25
62547;PMS7003;48602;45.192;5.722;2023-04-03T08:45:17;7.25;6.75;6.00
62547;PMS7003;48602;45.192;5.722;2023-04-03T08:47:53;8.25;6.00;4.75
62547;PMS7003;48602;45.192;5.722;2023-04-03T08:50:45;6.25;5.50;4.00
62547;PMS7003;48602;45.192;5.722;2023-04-03T08:53:16;7.00;7.00;6.00
62547;PMS7003;48602;45.192;5.722;2023-04-03T08:55:46;6.00;3.75;3.00
62547;PMS7003;48602;45.192;5.722;2023-04-03T08:58:21;8.50;8.50;7.25
62547;PMS7003;48602;45.192;5.722;2023-04-03T09:03:30;7.00;6.00;4.00
62547;PMS7003;48602;45.192;5.722;2023-04-03T09:06:00;7.25;6.50;5.75
62547;PMS7003;48602;45.192;5.722;2023-04-03T09:08:37;6.00;6.00;4.75
62547;PMS7003;48602;45.192;5.722;2023-04-03T09:11:25;7.00;7.00;6.00
62547;PMS7003;48602;45.192;5.722;2023-04-03T09:14:01;7.75;6.00;5.75
62547;PMS7003;48602;45.192;5.722;2023-04-03T09:16:35;7.75;7.75;7.00
62547;PMS7003;48602;45.192;5.722;2023-04-03T09:21:42;10.50;7.50;6.50
62547;PMS7003;48602;45.192;5.722;2023-04-03T09:24:09;7.50;7.50;6.50
62547;PMS7003;48602;45.192;5.722;2023-04-03T09:26:46;5.25;5.25;5.00
62547;PMS7003;48602;45.192;5.722;2023-04-03T09:29:17;5.00;5.00;5.00
62547;PMS7003;48602;45.192;5.722;2023-04-03T09:31:46;5.50;4.75;4.00
62547;PMS7003;48602;45.192;5.722;2023-04-03T09:34:22;4.75;4.50;3.50
62547;PMS7003;48602;45.192;5.722;2023-04-03T09:36:57;7.00;7.00;6.00
62547;PMS7003;48602;45.192;5.722;2023-04-03T09:41:59;6.00;6.00;5.00
62547;PMS7003;48602;45.192;5.722;2023-04-03T09:44:33;6.00;4.00;3.75
62547;PMS7003;48602;45.192;5.722;2023-04-03T09:47:35;5.25;5.25;5.00
62547;PMS7003;48602;45.192;5.722;2023-04-03T09:52:44;8.00;7.00;6.50
62547;PMS7003;48602;45.192;5.722;2023-04-03T09:57:43;9.25;7.25;6.00
62547;PMS7003;48602;45.192;5.722;2023-04-03T10:00:21;10.50;10.50;8.50
62547;PMS7003;48602;45.192;5.722;2023-04-03T10:02:53;5.00;4.50;4.00
62547;PMS7003;48602;45.192;5.722;2023-04-03T10:08:10;7.00;7.00;5.75
62547;PMS7003;48602;45.192;5.722;2023-04-03T10:10:42;7.75;7.25;6.00
62547;PMS7003;48602;45.192;5.722;2023-04-03T10:13:16;4.75;4.00;3.00
62547;PMS7003;48602;45.192;5.722;2023-04-03T10:21:29;8.25;8.25;7.25
62547;PMS7003;48602;45.192;5.722;2023-04-03T10:31:46;7.00;7.00;6.00
62547;PMS7003;48602;45.192;5.722;2023-04-03T10:34:30;5.50;5.50;4.25
62547;PMS7003;48602;45.192;5.722;2023-04-03T10:42:46;11.25;8.00;6.00
62547;PMS7003;48602;45.192;5.722;2023-04-03T10:51:03;7.50;7.25;6.00
62547;PMS7003;48602;45.192;5.722;2023-04-03T10:58:50;4.75;4.00;3.50
62547;PMS7003;48602;45.192;5.722;2023-04-03T11:01:24;7.00;4.00;3.75
62547;PMS7003;48602;45.192;5.722;2023-04-03T11:03:57;5.25;4.00;3.75
62547;PMS7003;48602;45.192;5.722;2023-04-03T11:06:25;6.00;4.60;4.00
62547;PMS7003;48602;45.192;5.722;2023-04-03T11:09:16;2.00;2.00;2.00
62547;PMS7003;48602;45.192;5.722;2023-04-03T11:11:47;4.25;4.25;3.00
62547;PMS7003;48602;45.192;5.722;2023-04-03T11:14:23;4.00;2.75;2.00
62547;PMS7003;48602;45.192;5.722;2023-04-03T11:17:04;2.60;2.60;2.60
62547;PMS7003;48602;45.192;5.722;2023-04-03T11:19:41;2.25;2.25;1.50
62547;PMS7003;48602;45.192;5.722;2023-04-03T11:27:40;1.40;1.40;1.40
62547;PMS7003;48602;45.192;5.722;2023-04-03T11:30:12;4.00;2.50;2.00
62547;PMS7003;48602;45.192;5.722;2023-04-03T11:32:59;5.00;3.00;3.00
62547;PMS7003;48602;45.192;5.722;2023-04-03T11:35:37;3.75;2.00;2.00
62547;PMS7003;48602;45.192;5.722;2023-04-03T11:38:10;5.60;4.00;4.00
62547;PMS7003;48602;45.192;5.722;2023-04-03T11:40:44;3.00;3.00;3.00
62547;PMS7003;48602;45.192;5.722;2023-04-03T11:43:25;2.75;2.75;2.00
62547;PMS7003;48602;45.192;5.722;2023-04-03T11:46:00;5.00;4.00;4.00
62547;PMS7003;48602;45.192;5.722;2023-04-03T11:50:57;2.00;2.00;2.00
62547;PMS7003;48602;45.192;5.722;2023-04-03T11:53:36;3.75;3.00;3.00
62547;PMS7003;48602;45.192;5.722;2023-04-03T11:56:47;1.50;1.50;1.50
62547;PMS7003;48602;45.192;5.722;2023-04-03T12:01:47;3.50;3.00;2.50
62547;PMS7003;48602;45.192;5.722;2023-04-03T12:04:24;3.50;3.00;3.00
62547;PMS7003;48602;45.192;5.722;2023-04-03T12:06:52;2.00;2.00;2.00
62547;PMS7003;48602;45.192;5.722;2023-04-03T12:12:23;4.00;4.00;3.75
62547;PMS7003;48602;45.192;5.722;2023-04-03T12:14:53;1.00;1.00;1.00
62547;PMS7003;48602;45.192;5.722;2023-04-03T12:17:20;3.50;3.00;3.00
62547;PMS7003;48602;45.192;5.722;2023-04-03T12:19:49;4.80;4.80;4.00
62547;PMS7003;48602;45.192;5.722;2023-04-03T12:22:16;3.00;3.00;2.75
62547;PMS7003;48602;45.192;5.722;2023-04-03T12:24:46;3.75;3.50;3.50
62547;PMS7003;48602;45.192;5.722;2023-04-03T12:30:01;5.00;3.80;2.80
62547;PMS7003;48602;45.192;5.722;2023-04-03T12:32:45;3.50;2.25;2.00
62547;PMS7003;48602;45.192;5.722;2023-04-03T12:48:25;6.00;4.75;4.00
62547;PMS7003;48602;45.192;5.722;2023-04-03T12:50:53;8.80;5.00;5.00
62547;PMS7003;48602;45.192;5.722;2023-04-03T12:53:22;7.00;5.50;4.00
62547;PMS7003;48602;45.192;5.722;2023-04-03T12:56:18;9.00;9.00;7.00
62547;PMS7003;48602;45.192;5.722;2023-04-03T12:58:45;8.25;4.75;3.75
62547;PMS7003;48602;45.192;5.722;2023-04-03T13:01:12;6.00;6.00;5.00
62547;PMS7003;48602;45.192;5.722;2023-04-03T13:03:40;4.50;2.25;2.25
62547;PMS7003;48602;45.192;5.722;2023-04-03T13:06:11;13.75;11.00;8.00
62547;PMS7003;48602;45.192;5.722;2023-04-03T13:08:52;7.00;7.00;5.75
62547;PMS7003;48602;45.192;5.722;2023-04-03T13:11:24;9.00;5.80;5.20
62547;PMS7003;48602;45.192;5.722;2023-04-03T13:14:04;9.50;7.50;7.50
62547;PMS7003;48602;45.192;5.722;2023-04-03T13:16:39;9.50;8.75;7.75
62547;PMS7003;48602;45.192;5.722;2023-04-03T13:19:06;12.00;11.50;9.50
62547;PMS7003;48602;45.192;5.722;2023-04-03T13:21:41;9.00;8.25;6.25
62547;PMS7003;48602;45.192;5.722;2023-04-03T13:24:09;13.75;11.25;9.00
62547;PMS7003;48602;45.192;5.722;2023-04-03T13:26:35;9.25;9.00;7.50
62547;PMS7003;48602;45.192;5.722;2023-04-03T13:29:25;8.25;8.25;7.00
62547;PMS7003;48602;45.192;5.722;2023-04-03T13:31:52;10.00;9.50;8.50
62547;PMS7003;48602;45.192;5.722;2023-04-03T13:34:21;5.75;5.75;5.25
62547;PMS7003;48602;45.192;5.722;2023-04-03T13:41:42;13.25;11.50;9.50
62547;PMS7003;48602;45.192;5.722;2023-04-03T13:46:48;8.75;8.00;7.25
62547;PMS7003;48602;45.192;5.722;2023-04-03T13:49:19;13.75;13.75;11.00
62547;PMS7003;48602;45.192;5.722;2023-04-03T13:51:47;8.75;8.00;7.75
62547;PMS7003;48602;45.192;5.722;2023-04-03T13:54:22;9.00;8.25;7.25
62547;PMS7003;48602;45.192;5.722;2023-04-03T13:56:54;10.00;10.00;8.00
62547;PMS7003;48602;45.192;5.722;2023-04-03T13:59:23;4.75;4.75;4.25
62547;PMS7003;48602;45.192;5.722;2023-04-03T14:04:21;4.75;4.75;3.50
62547;PMS7003;48602;45.192;5.722;2023-04-03T14:06:47;4.50;4.50;3.75
62547;PMS7003;48602;45.192;5.722;2023-04-03T14:09:13;12.25;8.00;8.00
62547;PMS7003;48602;45.192;5.722;2023-04-03T14:11:40;10.75;9.75;8.00
62547;PMS7003;48602;45.192;5.722;2023-04-03T14:16:57;10.50;10.50;8.50
62547;PMS7003;48602;45.192;5.722;2023-04-03T14:19:26;14.75;13.75;10.50
62547;PMS7003;48602;45.192;5.722;2023-04-03T14:21:57;8.25;8.25;6.50
62547;PMS7003;48602;45.192;5.722;2023-04-03T14:24:24;11.75;11.75;9.00
62547;PMS7003;48602;45.192;5.722;2023-04-03T14:26:51;7.00;6.75;6.00
62547;PMS7003;48602;45.192;5.722;2023-04-03T14:29:19;11.50;9.25;7.25
62547;PMS7003;48602;45.192;5.722;2023-04-03T14:31:46;7.50;7.25;6.25
62547;PMS7003;48602;45.192;5.722;2023-04-03T14:34:13;9.25;6.50;5.75
62547;PMS7003;48602;45.192;5.722;2023-04-03T14:36:40;12.25;10.25;8.00
62547;PMS7003;48602;45.192;5.722;2023-04-03T14:39:08;13.50;13.00;9.50
62547;PMS7003;48602;45.192;5.722;2023-04-03T14:41:41;9.50;8.25;7.50
62547;PMS7003;48602;45.192;5.722;2023-04-03T14:44:07;13.75;12.00;9.50
62547;PMS7003;48602;45.192;5.722;2023-04-03T14:46:34;17.50;15.25;12.25
62547;PMS7003;48602;45.192;5.722;2023-04-03T14:49:02;9.50;9.25;8.00
62547;PMS7003;48602;45.192;5.722;2023-04-03T14:51:32;7.50;7.50;6.50
62547;PMS7003;48602;45.192;5.722;2023-04-03T14:53:59;16.75;16.00;12.25
62547;PMS7003;48602;45.192;5.722;2023-04-03T14:56:26;10.75;10.25;9.00
62547;PMS7003;48602;45.192;5.722;2023-04-03T14:58:55;13.25;11.50;9.75
62547;PMS7003;48602;45.192;5.722;2023-04-03T15:01:22;9.75;9.75;8.00
62547;PMS7003;48602;45.192;5.722;2023-04-03T15:03:48;12.00;12.00;9.75
62547;PMS7003;48602;45.192;5.722;2023-04-03T15:06:14;8.00;6.75;5.50
62547;PMS7003;48602;45.192;5.722;2023-04-03T15:08:40;11.50;10.25;9.00
62547;PMS7003;48602;45.192;5.722;2023-04-03T15:11:07;8.00;8.00;7.00
62547;PMS7003;48602;45.192;5.722;2023-04-03T15:13:35;10.00;10.00;8.75
62547;PMS7003;48602;45.192;5.722;2023-04-03T15:16:00;11.50;11.50;10.00
62547;PMS7003;48602;45.192;5.722;2023-04-03T15:18:26;11.00;11.00;9.00
62547;PMS7003;48602;45.192;5.722;2023-04-03T15:20:55;11.00;10.75;8.75
62547;PMS7003;48602;45.192;5.722;2023-04-03T15:23:21;8.00;7.25;7.25
62547;PMS7003;48602;45.192;5.722;2023-04-03T15:25:51;11.50;9.25;7.00
62547;PMS7003;48602;45.192;5.722;2023-04-03T15:28:28;9.00;9.00;8.00
62547;PMS7003;48602;45.192;5.722;2023-04-03T15:31:01;12.25;12.25;9.00
62547;PMS7003;48602;45.192;5.722;2023-04-03T15:33:28;10.75;10.75;9.00
62547;PMS7003;48602;45.192;5.722;2023-04-03T15:35:54;6.50;6.50;5.25
62547;PMS7003;48602;45.192;5.722;2023-04-03T15:38:20;8.50;8.50;6.50
62547;PMS7003;48602;45.192;5.722;2023-04-03T15:40:45;12.00;11.75;8.75
62547;PMS7003;48602;45.192;5.722;2023-04-03T15:43:12;11.75;9.50;8.50
62547;PMS7003;48602;45.192;5.722;2023-04-03T15:45:37;9.75;8.75;7.50
62547;PMS7003;48602;45.192;5.722;2023-04-03T15:48:04;10.25;9.00;8.00
62547;PMS7003;48602;45.192;5.722;2023-04-03T15:50:30;10.75;9.00;7.50
62547;PMS7003;48602;45.192;5.722;2023-04-03T15:52:59;11.25;10.75;9.50
62547;PMS7003;48602;45.192;5.722;2023-04-03T15:55:27;5.50;5.00;4.75
62547;PMS7003;48602;45.192;5.722;2023-04-03T15:57:54;10.25;9.50;8.75
62547;PMS7003;48602;45.192;5.722;2023-04-03T16:00:21;7.50;6.75;5.75
62547;PMS7003;48602;45.192;5.722;2023-04-03T16:02:47;10.50;9.25;7.75